Time;durP1;ratioP1;P1;durP2;ratioP2;P2;SDS_P1;SDS_P2;PMS_P1;PMS_P2;Temp;Humidity;BMP_temperature;BMP_pressure;BME280_temperature;BME280_humidity;BME280_pressure;Samples;Min_cycle;Max_cycle;Signal;HPM_P1;HPM_P2
2022/11/16 00:44:47;;;;;;;10.35;6.82;;;;;;;11.90;79.30;98572.09;1072126;54;20089;-82
2022/11/16 01:46:17;;;;;;;7.80;4.55;;;;;;;12.36;77.45;98525.41;1085709;54;20058;-83
2022/11/16 01:48:43;;;;;;;7.40;4.30;;;;;;;12.30;78.13;98516.28;1092013;46;20018;-83
2022/11/16 01:49:50;;;;;;;6.50;4.03;;;;;;;12.33;77.99;98522.06;1088503;54;20026;-84
2022/11/16 01:50:58;;;;;;;6.88;4.18;;;;;;;12.37;78.13;98510.97;1091456;46;20035;-81
2022/11/16 01:52:04;;;;;;;6.95;4.13;;;;;;;12.36;77.99;98514.69;1088067;54;20039;-82
2022/11/16 01:53:10;;;;;;;6.55;4.35;;;;;;;12.35;78.38;98519.19;1088207;54;20026;-81
2022/11/16 01:54:13;;;;;;;8.32;4.93;;;;;;;12.34;78.29;98517.53;1088188;54;20039;-80
2022/11/16 01:55:18;;;;;;;7.95;5.28;;;;;;;12.28;78.56;98523.66;1088406;54;20015;-80
2022/11/16 01:56:21;;;;;;;7.55;4.60;;;;;;;12.25;78.73;98514.19;1088923;46;20548;-81
2022/11/16 01:57:35;;;;;;;7.88;5.47;;;;;;;12.24;79.05;98512.50;1088185;54;20026;-81
2022/11/16 01:58:37;;;;;;;7.07;4.70;;;;;;;12.21;78.66;98518.25;1095166;31;20543;-81
2022/11/16 01:59:55;;;;;;;7.97;5.07;;;;;;;12.19;78.75;98517.59;1088393;54;20031;-82
2022/11/16 02:00:56;;;;;;;7.20;4.60;;;;;;;12.19;78.86;98514.94;1088671;46;20575;-83
2022/11/16 02:02:09;;;;;;;7.88;4.97;;;;;;;12.17;79.16;98508.94;1088892;39;20440;-82
2022/11/16 02:03:10;;;;;;;7.57;4.82;;;;;;;12.23;78.74;98510.03;1087995;54;20019;-81
2022/11/16 02:04:20;;;;;;;8.45;4.82;;;;;;;12.19;78.86;98509.56;1090815;46;20026;-80
2022/11/16 02:05:29;;;;;;;6.65;4.45;;;;;;;12.25;78.57;98513.31;1088557;46;20038;-82
2022/11/16 02:06:59;;;;;;;7.72;4.80;;;;;;;12.08;79.10;98499.41;1088018;47;20014;-79
2022/11/16 03:03:48;;;;;;;7.30;4.75;;;;;;;11.49;83.33;98498.56;1087309;39;20725;-80
2022/11/16 03:04:54;;;;;;;7.35;4.60;;;;;;;11.58;83.01;98501.94;1086381;54;20034;-81
2022/11/16 03:06:05;;;;;;;7.22;4.75;;;;;;;11.47;83.50;98500.59;1086349;54;20046;-80
2022/11/16 03:07:09;;;;;;;10.82;5.88;;;;;;;11.39;83.75;98497.00;1086495;54;20043;-80
2022/11/16 03:08:24;;;;;;;9.35;5.30;;;;;;;11.48;83.66;98491.53;1085854;54;20060;-80
2022/11/16 03:09:30;;;;;;;8.18;5.35;;;;;;;11.39;83.92;98502.38;1086822;47;20046;-80
2022/11/16 03:12:04;;;;;;;8.57;4.95;;;;;;;11.50;83.45;98492.19;1085913;54;20042;-80
2022/11/16 03:13:09;;;;;;;7.75;4.72;;;;;;;11.49;83.51;98498.56;1085906;54;20573;-80
2022/11/16 03:14:18;;;;;;;8.88;5.30;;;;;;;11.47;83.54;98496.09;1087164;54;20079;-78
2022/11/16 03:19:00;;;;;;;9.75;5.00;;;;;;;11.33;84.30;98494.25;1087816;54;20059;-77
2022/11/16 03:48:49;;;;;;;9.02;4.40;;;;;;;11.27;85.55;98500.38;1086658;54;20050;-82
2022/11/16 03:49:54;;;;;;;7.53;4.70;;;;;;;11.27;85.67;98503.84;1095320;47;20041;-82
2022/11/16 03:50:58;;;;;;;7.15;4.22;;;;;;;11.29;85.62;98499.16;1092941;47;20035;-82
2022/11/16 03:52:00;;;;;;;6.43;4.40;;;;;;;11.35;85.16;98503.75;1088031;47;20619;-81
2022/11/16 03:53:05;;;;;;;6.22;4.15;;;;;;;11.45;84.57;98495.44;1086931;54;20050;-80
2022/11/16 03:54:09;;;;;;;7.20;4.50;;;;;;;11.43;84.51;98502.81;1087097;54;20038;-81
2022/11/16 03:55:11;;;;;;;7.65;4.38;;;;;;;11.45;84.74;98500.78;1087229;54;20058;-82
2022/11/16 03:56:16;;;;;;;5.97;3.78;;;;;;;11.54;84.30;98498.81;1087432;54;20055;-81
2022/11/16 03:57:18;;;;;;;6.13;4.00;;;;;;;11.52;84.55;98496.34;1087478;47;20030;-80
2022/11/16 03:58:22;;;;;;;7.57;4.57;;;;;;;11.36;85.01;98488.53;1086880;54;20049;-81
2022/11/16 03:59:24;;;;;;;6.82;4.65;;;;;;;11.24;85.74;98494.38;1088480;39;20468;-79
2022/11/16 04:00:34;;;;;;;7.90;5.20;;;;;;;11.31;86.02;98497.13;1086943;54;20030;-80
2022/11/16 04:01:36;;;;;;;8.80;6.93;;;;;;;11.20;86.21;98494.91;1087122;54;20034;-80
2022/11/16 04:02:41;;;;;;;8.65;7.00;;;;;;;11.36;85.68;98494.69;1087073;54;20035;-80
2022/11/16 04:03:42;;;;;;;9.15;7.72;;;;;;;11.42;85.42;98487.78;1086801;54;20050;-81
2022/11/16 04:24:24;;;;;;;6.55;4.18;;;;;;;11.57;85.00;98500.31;1087560;54;20057;-81
2022/11/16 04:25:33;;;;;;;6.60;4.30;;;;;;;11.61;85.04;98502.41;1087647;54;20033;-82
2022/11/16 04:29:14;;;;;;;5.47;3.70;;;;;;;11.69;84.51;98499.63;1087059;54;20042;-81
2022/11/16 04:30:16;;;;;;;8.05;4.65;;;;;;;11.59;84.72;98507.13;1086998;54;20046;-82
2022/11/16 04:38:12;;;;;;;8.35;4.80;;;;;;;11.34;85.68;98512.78;1087149;54;20027;-82
2022/11/16 04:39:14;;;;;;;6.55;4.57;;;;;;;11.34;86.15;98512.78;1089828;39;20520;-83
2022/11/16 04:40:16;;;;;;;8.95;5.22;;;;;;;11.32;86.18;98514.84;1088154;54;20078;-82
2022/11/16 04:49:57;;;;;;;7.28;4.93;;;;;;;11.66;84.37;98518.72;1084380;54;20042;-83
2022/11/16 04:50:58;;;;;;;6.25;4.40;;;;;;;11.70;84.26;98506.63;1088398;54;20042;-81
2022/11/16 04:52:16;;;;;;;6.00;4.20;;;;;;;11.69;84.03;98501.44;1088520;54;20027;-82
2022/11/16 04:53:19;;;;;;;6.50;3.95;;;;;;;11.67;84.03;98507.00;1088513;54;20049;-83
2022/11/16 04:54:26;;;;;;;5.63;3.83;;;;;;;11.75;84.00;98507.88;1088578;54;20034;-83
2022/11/16 04:55:28;;;;;;;5.55;3.63;;;;;;;11.75;83.80;98503.38;1088137;54;20037;-83
2022/11/16 04:56:34;;;;;;;5.40;3.78;;;;;;;11.78;83.71;98504.84;1088007;54;20049;-83
2022/11/16 04:57:36;;;;;;;6.30;3.90;;;;;;;11.67;83.92;98511.50;1088130;54;20039;-82
2022/11/16 04:58:43;;;;;;;5.43;3.33;;;;;;;11.58;84.76;98508.13;1089340;46;20026;-82
2022/11/16 04:59:44;;;;;;;7.03;4.30;;;;;;;11.49;85.11;98515.44;1089992;46;20583;-82
2022/11/16 05:00:49;;;;;;;5.70;3.72;;;;;;;11.49;85.18;98510.06;1088315;54;20030;-82
2022/11/16 05:03:09;;;;;;;7.63;3.72;;;;;;;11.55;84.89;98508.50;1088212;54;20026;-80
2022/11/16 05:04:20;;;;;;;6.22;3.75;;;;;;;11.42;85.88;98514.53;1088290;54;20018;-82
2022/11/16 05:05:27;;;;;;;8.13;5.20;;;;;;;11.43;86.04;98516.19;1088461;54;20023;-81
2022/11/16 05:06:28;;;;;;;6.95;5.10;;;;;;;11.52;85.40;98516.91;1088456;46;20044;-81
2022/11/16 05:07:42;;;;;;;7.00;5.40;;;;;;;11.51;85.42;98523.28;1088414;54;20011;-82
2022/11/16 05:08:44;;;;;;;7.90;5.78;;;;;;;11.57;85.35;98517.16;1088850;46;20053;-82
2022/11/16 05:09:55;;;;;;;8.57;5.40;;;;;;;11.64;84.98;98515.41;1088532;54;20026;-81
2022/11/16 05:10:57;;;;;;;5.93;4.60;;;;;;;11.74;84.58;98503.56;1088464;54;20027;-81
2022/11/16 05:12:05;;;;;;;6.93;4.53;;;;;;;11.78;83.87;98508.34;1088559;54;20030;-81
2022/11/16 06:05:56;;;;;;;6.15;3.28;;;;;;;12.09;81.78;98523.28;1079020;54;20049;-84
2022/11/16 06:06:58;;;;;;;;;;;;;;;12.02;81.98;98530.44;1088359;54;20019;-83
2022/11/16 06:08:02;;;;;;;4.82;2.92;;;;;;;12.05;81.76;98527.38;1088463;54;19978;-82
2022/11/16 06:09:15;;;;;;;5.53;3.25;;;;;;;12.07;81.83;98532.56;1088642;54;20022;-81
2022/11/16 07:31:38;;;;;;;6.85;4.38;;;;;;;11.54;82.82;98620.09;1071423;54;20987;-82
2022/11/16 08:03:05;;;;;;;7.35;4.55;;;;;;;11.64;83.52;98643.06;1079280;54;20041;-83
2022/11/16 08:48:36;;;;;;;5.88;1.80;;;;;;;12.14;78.56;98653.97;1087382;54;20065;-81
2022/11/16 08:49:41;;;;;;;7.05;1.90;;;;;;;12.40;78.58;98666.84;1087973;54;20065;-82
2022/11/16 08:50:45;;;;;;;5.78;1.88;;;;;;;12.25;77.97;98660.69;1087939;54;20042;-82
2022/11/16 08:51:49;;;;;;;4.05;1.63;;;;;;;12.39;77.98;98662.50;1088093;54;20133;-81
2022/11/16 08:53:00;;;;;;;5.25;1.67;;;;;;;12.30;77.38;98661.78;1088127;54;20543;-80
2022/11/16 08:54:05;;;;;;;6.95;2.15;;;;;;;12.48;77.36;98658.69;1087922;54;20019;-81
2022/11/16 08:55:20;;;;;;;6.05;2.15;;;;;;;12.63;76.38;98666.66;1087935;54;20018;-79
2022/11/16 08:56:22;;;;;;;6.47;1.85;;;;;;;12.64;76.88;98662.97;1090553;46;20031;-82
2022/11/16 08:57:29;;;;;;;5.60;1.52;;;;;;;12.47;75.93;98669.56;1088571;54;20081;-82
2022/11/16 08:58:30;;;;;;;6.00;1.92;;;;;;;12.62;75.98;98669.50;1097063;39;20453;-81
2022/11/16 09:01:25;;;;;;;7.28;1.50;;;;;;;12.63;75.84;98668.50;1088381;54;20002;-82
2022/11/16 09:02:29;;;;;;;4.68;1.77;;;;;;;12.78;75.73;98666.59;1088588;54;20042;-82
2022/11/16 09:03:39;;;;;;;4.40;1.30;;;;;;;12.77;74.62;98666.75;1088603;54;20062;-82
2022/11/16 09:04:42;;;;;;;5.45;1.30;;;;;;;12.65;75.60;98663.78;1088426;54;20023;-81
2022/11/16 09:07:33;;;;;;;4.13;1.23;;;;;;;12.86;75.06;98664.78;1088692;54;19995;-80
2022/11/16 09:12:08;;;;;;;7.25;1.63;;;;;;;12.46;75.58;98673.28;1092353;46;20028;-82
2022/11/16 09:13:09;;;;;;;6.07;1.50;;;;;;;12.69;75.15;98669.56;1088275;54;20042;-81
2022/11/16 09:14:14;;;;;;;5.78;1.95;;;;;;;12.76;74.80;98671.31;1087566;54;20064;-80
2022/11/16 09:15:18;;;;;;;6.28;1.75;;;;;;;12.57;75.01;98670.09;1088509;39;20517;-81
2022/11/16 09:16:28;;;;;;;4.57;1.38;;;;;;;12.60;74.46;98668.91;1087282;54;20027;-79
2022/11/16 09:17:30;;;;;;;;;;;;;;;12.55;74.71;98668.63;1087650;54;20049;-82
2022/11/16 09:18:34;;;;;;;5.90;1.73;;;;;;;12.83;74.72;98660.66;1087474;54;20440;-80
2022/11/16 09:19:41;;;;;;;5.30;1.50;;;;;;;12.95;74.16;98659.06;1087486;54;20046;-80
2022/11/16 09:20:44;;;;;;;6.38;2.00;;;;;;;13.02;74.32;98663.69;1087461;54;20045;-81
2022/11/16 09:21:49;;;;;;;10.40;2.60;;;;;;;12.98;74.15;98665.09;1090625;46;20041;-80
2022/11/16 09:22:51;;;;;;;6.82;1.60;;;;;;;12.76;74.32;98665.94;1087309;54;20045;-82
2022/11/16 09:23:57;;;;;;;5.53;1.70;;;;;;;12.85;74.46;98674.66;1087202;54;20045;-81
2022/11/16 09:25:01;;;;;;;5.95;1.65;;;;;;;12.89;74.13;98659.88;1087207;54;20047;-80
2022/11/16 09:26:08;;;;;;;5.18;1.70;;;;;;;13.19;73.37;98667.72;1087468;54;20026;-80
2022/11/16 09:27:12;;;;;;;5.00;1.50;;;;;;;13.39;73.33;98667.06;1088575;46;20042;-81
2022/11/16 09:28:14;;;;;;;3.97;1.13;;;;;;;13.61;72.77;98658.91;1087756;39;20416;-79
2022/11/16 09:29:19;;;;;;;8.75;2.05;;;;;;;13.73;72.19;98655.50;1087194;54;20034;-79
2022/11/16 09:30:21;;;;;;;7.95;2.25;;;;;;;13.61;72.36;98659.75;1087134;54;20057;-82
2022/11/16 09:31:28;;;;;;;4.75;1.48;;;;;;;13.56;72.24;98660.34;1087207;54;20030;-81
2022/11/16 09:32:33;;;;;;;5.00;1.67;;;;;;;13.71;72.22;98662.06;1086930;54;20094;-80
2022/11/16 09:33:35;;;;;;;5.43;1.40;;;;;;;13.67;72.39;98660.81;1087394;54;20037;-81
2022/11/16 09:34:42;;;;;;;4.07;1.40;;;;;;;13.72;71.97;98663.72;1087156;54;20034;-81
2022/11/16 09:35:44;;;;;;;5.47;1.75;;;;;;;13.56;72.21;98670.25;1087145;54;20034;-82
2022/11/16 09:36:48;;;;;;;4.35;1.40;;;;;;;13.95;71.83;98667.97;1087173;54;20086;-82
2022/11/16 09:37:50;;;;;;;4.07;1.60;;;;;;;14.25;70.98;98673.88;1087098;54;20065;-81
2022/11/16 09:38:55;;;;;;;4.65;1.52;;;;;;;14.44;70.33;98674.13;1086734;54;20046;-81
2022/11/16 09:39:57;;;;;;;7.15;1.60;;;;;;;14.33;70.12;98664.78;1087037;54;20044;-79
2022/11/16 09:41:01;;;;;;;7.15;1.90;;;;;;;14.49;70.06;98669.78;1086983;54;20042;-82
2022/11/16 09:43:34;;;;;;;6.28;1.55;;;;;;;14.42;69.13;98668.09;1088417;54;20041;-80
2022/11/16 09:45:07;;;;;;;5.32;1.92;;;;;;;14.13;69.12;98673.63;1088189;54;20031;-83
2022/11/16 09:46:22;;;;;;;5.35;1.55;;;;;;;13.96;70.14;98672.31;1087946;46;20030;-83
2022/11/16 09:47:34;;;;;;;6.35;1.75;;;;;;;14.06;70.47;98672.78;1087773;54;20090;-83
2022/11/16 09:48:39;;;;;;;6.28;1.52;;;;;;;13.73;70.64;98671.59;1087624;54;20010;-83
2022/11/16 09:49:50;;;;;;;4.85;1.40;;;;;;;13.55;70.43;98664.06;1087568;54;20026;-83
2022/11/16 09:50:57;;;;;;;4.10;1.20;;;;;;;13.48;71.06;98665.88;1087353;54;20031;-80
2022/11/16 09:52:01;;;;;;;6.03;1.55;;;;;;;13.65;70.71;98669.06;1087146;54;20054;-83
2022/11/16 09:53:18;;;;;;;3.50;1.17;;;;;;;13.85;70.57;98671.03;1087213;54;20030;-81
2022/11/16 09:54:26;;;;;;;4.45;1.48;;;;;;;13.60;70.72;98670.72;1087146;54;20042;-82
2022/11/16 09:55:34;;;;;;;4.72;1.67;;;;;;;13.73;70.43;98670.75;1087288;54;20065;-82
2022/11/16 09:56:42;;;;;;;4.70;1.40;;;;;;;13.73;70.67;98665.38;1087226;54;20042;-82
2022/11/16 09:57:46;;;;;;;2.83;1.00;;;;;;;14.04;69.98;98670.28;1087265;54;20034;-80
2022/11/16 09:58:56;;;;;;;3.63;1.20;;;;;;;14.22;69.09;98665.38;1087126;54;20056;-79
2022/11/16 10:00:06;;;;;;;4.03;1.50;;;;;;;14.53;68.88;98647.88;1089027;39;20768;-82
2022/11/16 10:01:22;;;;;;;4.63;1.55;;;;;;;14.65;68.48;98655.13;1087250;54;20133;-82
2022/11/16 10:02:31;;;;;;;5.63;1.40;;;;;;;14.72;68.25;98652.47;1087273;54;20058;-80
2022/11/16 10:03:39;;;;;;;4.75;1.40;;;;;;;14.59;66.71;98653.28;1087348;54;20046;-79
2022/11/16 10:04:54;;;;;;;4.90;1.48;;;;;;;14.78;65.62;98651.66;1089030;46;20058;-82
2022/11/16 10:06:02;;;;;;;6.47;1.60;;;;;;;14.39;66.12;98652.41;1097651;39;20662;-81
2022/11/16 10:07:10;;;;;;;6.53;1.38;;;;;;;14.71;66.14;98655.38;1087347;54;20061;-84
2022/11/16 10:08:17;;;;;;;5.03;1.42;;;;;;;14.68;66.15;98653.09;1088577;46;20034;-81
2022/11/16 10:09:22;;;;;;;4.00;1.13;;;;;;;14.86;65.78;98657.84;1087314;54;20061;-80
2022/11/16 10:10:33;;;;;;;4.57;1.40;;;;;;;15.15;64.78;98658.47;1087251;54;20034;-81
2022/11/16 10:12:00;;;;;;;6.25;1.30;;;;;;;15.01;64.38;98655.81;1087203;54;20035;-83
2022/11/16 10:13:17;;;;;;;7.13;2.15;;;;;;;15.12;64.15;98663.22;1087228;46;20085;-81
2022/11/16 10:14:51;;;;;;;3.58;1.40;;;;;;;15.32;62.19;98662.38;1087082;54;20034;-81
2022/11/16 10:16:05;;;;;;;7.47;2.17;;;;;;;15.22;63.45;98659.28;1087559;39;20650;-80
2022/11/16 10:17:19;;;;;;;5.50;1.20;;;;;;;14.96;63.92;98658.28;1087170;54;20030;-80
2022/11/16 10:18:39;;;;;;;7.50;1.83;;;;;;;14.71;64.71;98666.13;1087195;54;20050;-80
2022/11/16 10:19:54;;;;;;;7.43;1.50;;;;;;;14.58;64.99;98670.44;1087178;54;20031;-81
2022/11/16 10:21:31;;;;;;;4.75;1.35;;;;;;;14.10;65.90;98665.97;1088235;46;20848;-80
2022/11/16 10:22:40;;;;;;;6.07;1.83;;;;;;;13.95;66.95;98668.78;1087487;54;20046;-81
2022/11/16 10:23:59;;;;;;;6.75;2.00;;;;;;;14.36;66.05;98664.38;1088483;39;20625;-84
2022/11/16 10:25:12;;;;;;;4.57;1.30;;;;;;;14.52;65.51;98668.53;1087826;54;20713;-80
2022/11/16 10:26:24;;;;;;;3.42;1.38;;;;;;;14.42;65.53;98668.09;1087877;54;20042;-82
2022/11/16 10:28:01;;;;;;;6.43;1.75;;;;;;;14.28;65.78;98665.41;1087767;54;20038;-83
2022/11/16 10:29:30;;;;;;;5.68;1.75;;;;;;;13.91;66.88;98664.88;1087665;54;20068;-82
2022/11/16 10:30:42;;;;;;;10.20;1.55;;;;;;;13.55;67.81;98666.75;1087899;54;20041;-82
2022/11/16 10:32:05;;;;;;;6.78;1.50;;;;;;;13.50;68.11;98666.53;1087652;54;20057;-82
2022/11/16 10:33:14;;;;;;;4.80;1.38;;;;;;;13.72;67.78;98661.88;1087766;54;20775;-81
2022/11/16 10:34:21;;;;;;;5.85;1.40;;;;;;;13.57;67.92;98661.16;1089643;46;20034;-81
2022/11/16 10:35:32;;;;;;;4.97;1.40;;;;;;;13.87;67.32;98656.38;1087837;54;20030;-80
2022/11/16 10:36:35;;;;;;;4.82;1.70;;;;;;;13.91;67.03;98655.97;1087809;54;20081;-80
2022/11/16 10:37:45;;;;;;;8.43;1.95;;;;;;;13.83;67.01;98660.47;1087852;54;20042;-80
2022/11/16 10:38:47;;;;;;;6.55;1.65;;;;;;;13.87;67.41;98651.00;1087685;54;20053;-81
2022/11/16 10:39:53;;;;;;;5.60;1.60;;;;;;;13.83;67.26;98657.81;1088237;46;20084;-80
2022/11/16 10:41:02;;;;;;;7.07;1.67;;;;;;;13.66;67.66;98651.09;1087799;47;20046;-81
2022/11/16 10:42:12;;;;;;;4.35;1.38;;;;;;;13.77;67.47;98650.56;1092065;39;21129;-81
2022/11/16 10:43:15;;;;;;;5.78;1.85;;;;;;;13.76;67.43;98646.19;1088255;46;20082;-81
2022/11/16 10:44:27;;;;;;;5.40;1.35;;;;;;;13.75;67.29;98657.97;1087664;54;20089;-82
2022/11/16 10:45:37;;;;;;;6.63;1.20;;;;;;;13.56;68.06;98649.63;1087821;54;20035;-81
2022/11/16 10:46:45;;;;;;;6.40;1.63;;;;;;;13.47;67.96;98650.81;1087745;54;20030;-83
2022/11/16 10:47:53;;;;;;;6.82;1.65;;;;;;;13.32;68.86;98658.13;1090821;39;20680;-80
2022/11/16 10:49:06;;;;;;;8.80;2.08;;;;;;;13.34;69.03;98646.16;1087715;54;20030;-81
2022/11/16 10:50:30;;;;;;;5.50;1.73;;;;;;;13.20;69.65;98661.34;1087596;54;20050;-82
2022/11/16 10:51:37;;;;;;;5.55;1.50;;;;;;;13.45;69.17;98646.66;1087693;54;20036;-82
2022/11/16 10:52:38;;;;;;;4.55;1.52;;;;;;;13.56;68.66;98649.63;1087775;54;20045;-80
2022/11/16 10:53:44;;;;;;;5.22;1.30;;;;;;;13.53;68.55;98652.69;1088715;46;20034;-83
2022/11/16 10:54:46;;;;;;;6.47;1.58;;;;;;;13.40;69.27;98644.56;1087651;54;20039;-81
2022/11/16 10:56:04;;;;;;;7.18;1.60;;;;;;;13.32;69.41;98642.03;1087935;47;20085;-82
2022/11/16 10:57:12;;;;;;;5.07;1.50;;;;;;;13.43;69.25;98638.78;1087886;54;20102;-81
2022/11/16 10:58:14;;;;;;;6.70;1.80;;;;;;;13.31;69.44;98645.72;1087893;54;20053;-81
2022/11/16 10:59:21;;;;;;;5.18;1.33;;;;;;;13.21;69.93;98644.22;1088484;39;20602;-81
2022/11/16 11:00:44;;;;;;;4.13;1.17;;;;;;;13.29;70.00;98643.22;1087991;54;20034;-82
2022/11/16 11:01:52;;;;;;;4.60;1.30;;;;;;;13.31;69.74;98638.50;1090513;46;20069;-82
2022/11/16 11:02:53;;;;;;;5.13;1.73;;;;;;;13.40;69.62;98639.22;1089741;39;20535;-82
2022/11/16 11:03:59;;;;;;;5.38;1.50;;;;;;;13.49;69.12;98643.38;1087848;54;20662;-81
2022/11/16 11:05:07;;;;;;;8.88;1.70;;;;;;;13.48;69.12;98641.72;1087943;54;20030;-81
2022/11/16 11:06:13;;;;;;;4.45;1.30;;;;;;;13.51;69.24;98632.44;1087878;54;20038;-81
2022/11/16 11:07:32;;;;;;;5.10;1.70;;;;;;;13.40;69.70;98639.22;1087956;54;20741;-82
2022/11/16 11:08:33;;;;;;;4.28;1.42;;;;;;;13.62;69.21;98631.03;1088080;47;20102;-80
2022/11/16 11:09:42;;;;;;;4.95;1.90;;;;;;;13.80;68.66;98641.25;1087948;47;20035;-81
2022/11/16 11:10:55;;;;;;;4.38;1.50;;;;;;;13.86;68.84;98632.38;1087860;54;20025;-81
2022/11/16 11:13:26;;;;;;;4.65;1.98;;;;;;;13.66;69.05;98632.31;1087957;54;20114;-83
2022/11/16 11:14:28;;;;;;;4.40;1.65;;;;;;;13.60;69.14;98627.75;1087756;54;21100;-81
2022/11/16 11:15:32;;;;;;;5.93;1.45;;;;;;;13.72;69.08;98629.66;1087921;54;20046;-81
2022/11/16 11:16:34;;;;;;;3.83;1.30;;;;;;;13.70;69.08;98628.19;1087875;54;20042;-81
2022/11/16 11:17:39;;;;;;;6.45;1.63;;;;;;;13.82;68.94;98626.59;1087931;54;20037;-81
2022/11/16 11:18:41;;;;;;;5.22;1.88;;;;;;;13.82;69.09;98631.97;1087899;54;20082;-81
2022/11/16 11:19:46;;;;;;;3.78;1.38;;;;;;;13.91;68.47;98621.03;1088009;54;20019;-82
2022/11/16 11:20:51;;;;;;;6.22;1.20;;;;;;;13.80;68.77;98627.81;1088034;54;20098;-82
2022/11/16 11:21:58;;;;;;;5.22;1.50;;;;;;;13.98;68.30;98614.66;1087915;54;20094;-81
2022/11/16 11:23:15;;;;;;;4.72;1.63;;;;;;;13.86;67.52;98621.66;1088009;54;20074;-82
2022/11/16 11:24:17;;;;;;;7.70;1.85;;;;;;;13.81;67.88;98619.56;1087881;54;20761;-81
2022/11/16 11:25:24;;;;;;;7.40;1.83;;;;;;;13.87;67.59;98615.25;1088612;39;20692;-81
2022/11/16 11:26:33;;;;;;;5.25;1.40;;;;;;;13.91;67.17;98612.97;1091497;46;20026;-81
2022/11/16 11:27:35;;;;;;;4.65;1.60;;;;;;;13.93;66.88;98617.16;1090326;46;20090;-82
2022/11/16 11:28:47;;;;;;;5.35;1.80;;;;;;;13.83;66.64;98616.69;1088337;54;20058;-82
2022/11/16 11:29:57;;;;;;;4.00;1.38;;;;;;;13.76;66.51;98616.66;1088199;54;20037;-80
2022/11/16 11:31:01;;;;;;;5.18;1.58;;;;;;;13.76;66.50;98615.81;1088098;54;20053;-81
2022/11/16 11:32:08;;;;;;;4.57;1.38;;;;;;;13.77;66.33;98607.56;1087906;54;20038;-82
2022/11/16 11:33:13;;;;;;;5.50;1.25;;;;;;;13.91;65.86;98612.97;1087973;54;20034;-84
2022/11/16 11:34:19;;;;;;;3.05;1.20;;;;;;;13.96;65.59;98613.22;1087915;54;20030;-82
2022/11/16 11:35:25;;;;;;;5.38;1.77;;;;;;;13.97;65.63;98615.69;1087928;54;20053;-81
2022/11/16 11:36:33;;;;;;;2.97;1.08;;;;;;;14.04;65.68;98610.34;1089461;39;21122;-82
2022/11/16 11:37:40;;;;;;;3.85;1.20;;;;;;;13.78;65.70;98613.75;1087949;54;20037;-83
2022/11/16 11:39:02;;;;;;;4.25;1.17;;;;;;;13.62;65.53;98610.41;1088048;54;20049;-82
2022/11/16 11:40:25;;;;;;;6.38;1.55;;;;;;;13.75;65.22;98614.16;1092174;39;20632;-80
2022/11/16 11:41:32;;;;;;;6.35;0.90;;;;;;;13.63;65.93;98622.81;1088620;46;20034;-82
2022/11/16 11:42:36;;;;;;;4.70;1.75;;;;;;;13.67;65.61;98615.19;1088132;39;20779;-81
2022/11/16 11:43:40;;;;;;;4.65;1.00;;;;;;;13.66;65.34;98613.50;1087969;54;20058;-82
2022/11/16 11:44:49;;;;;;;4.47;1.00;;;;;;;13.82;64.99;98612.34;1088052;54;20022;-82
2022/11/16 11:45:58;;;;;;;2.95;1.00;;;;;;;13.85;64.48;98611.94;1088015;54;20034;-82
2022/11/16 11:47:13;;;;;;;5.13;1.10;;;;;;;13.62;64.71;98614.94;1087986;54;20031;-83
2022/11/16 11:48:31;;;;;;;4.32;1.42;;;;;;;13.68;64.27;98609.59;1088080;54;20061;-81
2022/11/16 11:49:38;;;;;;;3.15;1.20;;;;;;;13.52;65.05;98621.50;1088060;54;20072;-81
2022/11/16 11:50:49;;;;;;;4.00;1.15;;;;;;;13.76;64.67;98615.81;1088019;54;20031;-82
2022/11/16 11:51:56;;;;;;;3.55;1.40;;;;;;;13.63;64.86;98617.44;1088967;46;20083;-82
2022/11/16 11:53:02;;;;;;;7.85;1.10;;;;;;;13.60;64.31;98623.19;1090421;46;20057;-82
2022/11/16 11:54:15;;;;;;;3.40;1.00;;;;;;;13.76;63.30;98608.59;1088103;54;20089;-83
2022/11/16 11:55:18;;;;;;;6.10;1.30;;;;;;;13.60;63.33;98612.47;1088076;54;20018;-81
2022/11/16 11:56:22;;;;;;;5.60;1.85;;;;;;;13.65;63.12;98601.13;1088609;46;20035;-81
2022/11/16 11:57:25;;;;;;;7.50;1.40;;;;;;;13.73;62.88;98607.16;1088189;54;20058;-82
2022/11/16 11:58:34;;;;;;;4.38;1.15;;;;;;;13.79;62.40;98610.88;1090197;46;20038;-80
2022/11/16 11:59:38;;;;;;;3.55;1.13;;;;;;;13.70;62.35;98606.69;1088060;47;20061;-82
2022/11/16 12:00:51;;;;;;;4.15;1.63;;;;;;;13.76;61.44;98611.28;1089044;39;20697;-82
2022/11/16 12:02:17;;;;;;;5.10;1.25;;;;;;;13.82;60.79;98605.09;1087993;54;20018;-81
2022/11/16 12:03:51;;;;;;;4.18;1.30;;;;;;;13.95;60.94;98596.25;1088000;54;20061;-81
2022/11/16 12:05:24;;;;;;;4.00;1.15;;;;;;;13.84;60.92;98602.22;1087946;54;20034;-80
2022/11/16 12:06:32;;;;;;;6.65;1.77;;;;;;;13.84;60.22;98599.53;1088048;54;20030;-81
2022/11/16 12:07:53;;;;;;;6.32;1.00;;;;;;;13.95;60.14;98592.75;1088070;54;20050;-81
2022/11/16 12:09:14;;;;;;;4.45;1.30;;;;;;;13.91;60.31;98586.97;1088065;54;20035;-82
2022/11/16 12:10:27;;;;;;;4.57;1.30;;;;;;;13.90;60.46;98585.31;1087979;54;20041;-81
2022/11/16 12:11:40;;;;;;;4.35;1.17;;;;;;;13.95;60.45;98585.50;1087981;39;20092;-82
2022/11/16 12:12:57;;;;;;;6.22;1.20;;;;;;;14.06;60.44;98585.97;1088052;54;20038;-81
2022/11/16 12:14:12;;;;;;;5.45;1.65;;;;;;;14.23;60.21;98584.53;1087939;54;20041;-83
2022/11/16 12:15:44;;;;;;;3.53;1.00;;;;;;;14.32;59.59;98585.19;1088129;54;20034;-83
2022/11/16 12:16:58;;;;;;;4.75;1.05;;;;;;;14.46;59.92;98583.34;1088077;54;20026;-84
2022/11/16 12:18:16;;;;;;;4.75;1.00;;;;;;;14.45;59.34;98571.75;1088128;54;20030;-84
2022/11/16 12:19:40;;;;;;;5.00;1.25;;;;;;;14.56;59.77;98574.84;1088177;54;20034;-83
2022/11/16 12:20:51;;;;;;;3.30;1.63;;;;;;;14.50;59.89;98573.81;1088197;54;20018;-83
2022/11/16 12:22:07;;;;;;;5.30;1.30;;;;;;;14.64;59.89;98574.66;1089081;39;20645;-84
2022/11/16 12:23:45;;;;;;;7.93;1.10;;;;;;;14.45;59.55;98571.75;1088050;54;20035;-84
2022/11/16 12:25:03;;;;;;;5.90;1.15;;;;;;;14.50;59.62;98574.66;1089616;39;20606;-82
2022/11/16 12:26:15;;;;;;;5.80;1.20;;;;;;;14.38;59.11;98576.28;1088239;54;20058;-82
2022/11/16 12:27:30;;;;;;;4.43;0.98;;;;;;;14.35;58.53;98576.72;1088209;54;20034;-83
2022/11/16 12:28:49;;;;;;;4.80;0.98;;;;;;;14.59;58.28;98575.28;1088066;54;20053;-83
2022/11/16 12:30:04;;;;;;;8.17;1.67;;;;;;;14.51;58.01;98572.78;1088200;54;20057;-82
2022/11/16 12:31:28;;;;;;;4.35;0.98;;;;;;;14.75;57.61;98565.97;1094836;39;20926;-83
2022/11/16 12:32:52;;;;;;;4.95;1.05;;;;;;;14.82;57.04;98572.19;1088075;54;20102;-84
2022/11/16 12:34:06;;;;;;;7.65;1.42;;;;;;;14.60;57.44;98568.84;1088137;54;20038;-81
2022/11/16 12:35:35;;;;;;;4.38;1.10;;;;;;;14.67;57.46;98571.56;1088209;54;20019;-83
2022/11/16 12:36:46;;;;;;;4.90;1.10;;;;;;;14.72;57.45;98571.78;1087955;54;20035;-82
2022/11/16 12:37:58;;;;;;;6.05;0.93;;;;;;;14.50;57.10;98566.59;1088135;54;20042;-84
2022/11/16 12:39:18;;;;;;;4.03;1.20;;;;;;;14.39;57.19;98563.69;1088024;54;20026;-83
2022/11/16 12:40:43;;;;;;;5.63;1.10;;;;;;;14.60;57.11;98563.47;1088070;54;20693;-84
2022/11/16 12:42:03;;;;;;;3.30;0.90;;;;;;;14.57;57.35;98568.44;1088094;54;20935;-83
2022/11/16 12:43:18;;;;;;;6.25;1.13;;;;;;;14.68;57.56;98567.03;1087858;54;20038;-83
2022/11/16 12:44:31;;;;;;;4.25;1.02;;;;;;;14.72;57.68;98568.25;1088060;54;20034;-84
2022/11/16 12:45:59;;;;;;;4.05;1.20;;;;;;;14.75;57.43;98571.34;1088090;54;20050;-84
2022/11/16 12:47:13;;;;;;;3.72;1.27;;;;;;;14.81;57.87;98562.47;1088075;54;20054;-84
2022/11/16 12:48:50;;;;;;;5.25;1.08;;;;;;;14.79;57.56;98561.84;1087925;54;20037;-83
2022/11/16 12:50:09;;;;;;;5.18;1.30;;;;;;;14.57;58.14;98563.91;1087868;54;20082;-80
2022/11/16 12:51:26;;;;;;;4.32;1.30;;;;;;;14.78;58.05;98565.56;1088892;46;20035;-83
2022/11/16 12:52:51;;;;;;;5.10;1.50;;;;;;;14.80;57.92;98563.50;1088053;54;20027;-83
2022/11/16 12:54:23;;;;;;;5.88;1.95;;;;;;;14.78;57.90;98554.81;1087930;54;20078;-83
2022/11/16 12:55:35;;;;;;;7.53;1.90;;;;;;;14.67;58.18;98555.44;1091496;31;20693;-81
2022/11/16 12:56:51;;;;;;;4.07;1.52;;;;;;;14.61;57.92;98556.25;1088129;54;20018;-82
2022/11/16 12:58:06;;;;;;;4.05;1.55;;;;;;;14.43;58.18;98551.47;1089107;46;20041;-82
2022/11/16 12:59:26;;;;;;;4.85;1.67;;;;;;;14.59;57.91;98550.25;1089455;39;20230;-81
2022/11/16 13:00:33;;;;;;;4.90;1.20;;;;;;;14.78;58.04;98549.44;1088160;54;20015;-80
2022/11/16 13:01:42;;;;;;;4.75;1.50;;;;;;;14.90;57.73;98559.56;1093955;39;20776;-83